sensor_id;sensor_type;location;lat;lon;timestamp;temperature;humidity
26964;DHT22;14521;48.148;-1.656;2023-05-18T00:03:10;21.10;79.20
26964;DHT22;14521;48.148;-1.656;2023-05-18T00:06:33;21.10;79.30
26964;DHT22;14521;48.148;-1.656;2023-05-18T00:09:55;21.10;79.30
26964;DHT22;14521;48.148;-1.656;2023-05-18T00:13:17;21.10;79.40
26964;DHT22;14521;48.148;-1.656;2023-05-18T00:16:39;21.10;79.30
26964;DHT22;14521;48.148;-1.656;2023-05-18T00:20:02;21.10;79.40
26964;DHT22;14521;48.148;-1.656;2023-05-18T00:23:29;21.10;79.30
26964;DHT22;14521;48.148;-1.656;2023-05-18T00:26:52;21.10;79.30
26964;DHT22;14521;48.148;-1.656;2023-05-18T00:30:14;21.00;79.20
26964;DHT22;14521;48.148;-1.656;2023-05-18T00:33:37;21.10;79.20
26964;DHT22;14521;48.148;-1.656;2023-05-18T00:36:59;21.10;79.20
26964;DHT22;14521;48.148;-1.656;2023-05-18T00:40:23;21.10;79.20
26964;DHT22;14521;48.148;-1.656;2023-05-18T00:43:47;21.10;79.10
26964;DHT22;14521;48.148;-1.656;2023-05-18T00:47:09;21.00;79.00
26964;DHT22;14521;48.148;-1.656;2023-05-18T00:50:32;21.00;79.10
26964;DHT22;14521;48.148;-1.656;2023-05-18T00:53:55;21.00;79.10
26964;DHT22;14521;48.148;-1.656;2023-05-18T00:57:18;21.00;79.00
26964;DHT22;14521;48.148;-1.656;2023-05-18T01:00:41;21.10;79.10
26964;DHT22;14521;48.148;-1.656;2023-05-18T01:04:03;21.00;78.90
26964;DHT22;14521;48.148;-1.656;2023-05-18T01:07:26;21.00;78.90
26964;DHT22;14521;48.148;-1.656;2023-05-18T01:15:07;21.00;79.00
26964;DHT22;14521;48.148;-1.656;2023-05-18T01:19:02;21.00;79.00
26964;DHT22;14521;48.148;-1.656;2023-05-18T01:29:16;21.00;79.00
26964;DHT22;14521;48.148;-1.656;2023-05-18T01:32:41;21.00;78.90
26964;DHT22;14521;48.148;-1.656;2023-05-18T01:36:04;21.00;79.00
26964;DHT22;14521;48.148;-1.656;2023-05-18T01:39:26;21.00;78.90
26964;DHT22;14521;48.148;-1.656;2023-05-18T01:42:50;21.00;78.90
26964;DHT22;14521;48.148;-1.656;2023-05-18T01:50:04;20.90;78.90
26964;DHT22;14521;48.148;-1.656;2023-05-18T01:53:42;20.90;78.80
26964;DHT22;14521;48.148;-1.656;2023-05-18T01:57:07;20.90;78.80
26964;DHT22;14521;48.148;-1.656;2023-05-18T02:00:30;20.90;78.70
26964;DHT22;14521;48.148;-1.656;2023-05-18T02:03:53;20.90;78.70
26964;DHT22;14521;48.148;-1.656;2023-05-18T02:07:16;20.90;78.70
26964;DHT22;14521;48.148;-1.656;2023-05-18T02:10:38;20.90;78.70
26964;DHT22;14521;48.148;-1.656;2023-05-18T02:14:02;20.90;78.80
26964;DHT22;14521;48.148;-1.656;2023-05-18T02:17:24;20.90;78.70
26964;DHT22;14521;48.148;-1.656;2023-05-18T02:20:47;20.90;78.70
26964;DHT22;14521;48.148;-1.656;2023-05-18T02:24:10;20.80;78.80
26964;DHT22;14521;48.148;-1.656;2023-05-18T02:27:33;20.80;78.80
26964;DHT22;14521;48.148;-1.656;2023-05-18T02:31:08;20.80;79.00
26964;DHT22;14521;48.148;-1.656;2023-05-18T02:34:30;20.80;78.80
26964;DHT22;14521;48.148;-1.656;2023-05-18T02:37:53;20.80;78.80
26964;DHT22;14521;48.148;-1.656;2023-05-18T02:41:18;20.80;78.80
26964;DHT22;14521;48.148;-1.656;2023-05-18T02:44:41;20.80;79.60
26964;DHT22;14521;48.148;-1.656;2023-05-18T02:48:06;20.70;78.80
26964;DHT22;14521;48.148;-1.656;2023-05-18T02:51:28;20.80;78.80
26964;DHT22;14521;48.148;-1.656;2023-05-18T02:54:53;20.80;78.80
26964;DHT22;14521;48.148;-1.656;2023-05-18T02:58:24;20.80;78.70
26964;DHT22;14521;48.148;-1.656;2023-05-18T03:01:55;20.70;78.60
26964;DHT22;14521;48.148;-1.656;2023-05-18T03:05:17;20.70;78.60
26964;DHT22;14521;48.148;-1.656;2023-05-18T03:08:44;20.70;78.50
26964;DHT22;14521;48.148;-1.656;2023-05-18T03:12:10;20.70;78.50
26964;DHT22;14521;48.148;-1.656;2023-05-18T03:15:32;20.70;78.50
26964;DHT22;14521;48.148;-1.656;2023-05-18T03:18:55;20.70;78.50
26964;DHT22;14521;48.148;-1.656;2023-05-18T03:22:25;20.70;78.50
26964;DHT22;14521;48.148;-1.656;2023-05-18T03:25:47;20.70;78.50
26964;DHT22;14521;48.148;-1.656;2023-05-18T03:29:19;20.70;78.50
26964;DHT22;14521;48.148;-1.656;2023-05-18T03:32:41;20.70;78.50
26964;DHT22;14521;48.148;-1.656;2023-05-18T03:36:04;20.70;78.50
26964;DHT22;14521;48.148;-1.656;2023-05-18T03:39:27;20.60;79.20
26964;DHT22;14521;48.148;-1.656;2023-05-18T03:42:49;20.60;78.30
26964;DHT22;14521;48.148;-1.656;2023-05-18T03:46:12;20.60;78.30
26964;DHT22;14521;48.148;-1.656;2023-05-18T03:49:34;20.60;78.30
26964;DHT22;14521;48.148;-1.656;2023-05-18T03:52:57;20.60;78.30
26964;DHT22;14521;48.148;-1.656;2023-05-18T03:56:19;20.60;78.30
26964;DHT22;14521;48.148;-1.656;2023-05-18T03:59:43;20.60;78.30
26964;DHT22;14521;48.148;-1.656;2023-05-18T04:03:05;20.60;78.30
26964;DHT22;14521;48.148;-1.656;2023-05-18T04:06:29;20.60;78.30
26964;DHT22;14521;48.148;-1.656;2023-05-18T04:09:53;20.60;78.30
26964;DHT22;14521;48.148;-1.656;2023-05-18T04:13:16;20.60;78.30
26964;DHT22;14521;48.148;-1.656;2023-05-18T04:16:40;20.60;78.20
26964;DHT22;14521;48.148;-1.656;2023-05-18T04:20:02;20.60;78.20
26964;DHT22;14521;48.148;-1.656;2023-05-18T04:23:34;20.60;78.30
26964;DHT22;14521;48.148;-1.656;2023-05-18T04:27:01;20.60;78.30
26964;DHT22;14521;48.148;-1.656;2023-05-18T04:30:26;20.60;78.30
26964;DHT22;14521;48.148;-1.656;2023-05-18T04:33:50;20.60;78.30
26964;DHT22;14521;48.148;-1.656;2023-05-18T04:37:13;20.60;78.20
26964;DHT22;14521;48.148;-1.656;2023-05-18T04:40:40;20.50;78.20
26964;DHT22;14521;48.148;-1.656;2023-05-18T04:44:05;20.60;78.30
26964;DHT22;14521;48.148;-1.656;2023-05-18T04:47:29;20.50;78.10
26964;DHT22;14521;48.148;-1.656;2023-05-18T04:50:51;20.50;78.10
26964;DHT22;14521;48.148;-1.656;2023-05-18T04:54:17;20.60;78.20
26964;DHT22;14521;48.148;-1.656;2023-05-18T04:57:41;20.50;78.10
26964;DHT22;14521;48.148;-1.656;2023-05-18T05:01:06;20.50;78.00
26964;DHT22;14521;48.148;-1.656;2023-05-18T05:04:29;20.50;78.10
26964;DHT22;14521;48.148;-1.656;2023-05-18T05:07:52;20.50;78.00
26964;DHT22;14521;48.148;-1.656;2023-05-18T05:11:14;20.50;78.00
26964;DHT22;14521;48.148;-1.656;2023-05-18T05:14:37;20.50;78.00
26964;DHT22;14521;48.148;-1.656;2023-05-18T05:17:59;20.50;78.00
26964;DHT22;14521;48.148;-1.656;2023-05-18T05:21:21;20.50;78.00
26964;DHT22;14521;48.148;-1.656;2023-05-18T05:24:45;20.50;78.00
26964;DHT22;14521;48.148;-1.656;2023-05-18T05:28:07;20.50;78.00
26964;DHT22;14521;48.148;-1.656;2023-05-18T05:31:30;20.50;78.00
26964;DHT22;14521;48.148;-1.656;2023-05-18T05:34:54;20.50;78.00
26964;DHT22;14521;48.148;-1.656;2023-05-18T05:38:16;20.50;78.00
26964;DHT22;14521;48.148;-1.656;2023-05-18T05:41:39;20.50;78.00
26964;DHT22;14521;48.148;-1.656;2023-05-18T05:45:01;20.50;78.00
26964;DHT22;14521;48.148;-1.656;2023-05-18T05:48:27;20.40;77.90
26964;DHT22;14521;48.148;-1.656;2023-05-18T05:51:49;20.40;77.90
26964;DHT22;14521;48.148;-1.656;2023-05-18T05:55:12;20.40;77.90
26964;DHT22;14521;48.148;-1.656;2023-05-18T05:58:35;20.50;78.30
26964;DHT22;14521;48.148;-1.656;2023-05-18T06:01:57;20.50;78.10
26964;DHT22;14521;48.148;-1.656;2023-05-18T06:05:21;20.50;78.00
26964;DHT22;14521;48.148;-1.656;2023-05-18T06:08:43;20.50;77.00
26964;DHT22;14521;48.148;-1.656;2023-05-18T06:12:06;20.50;78.00
26964;DHT22;14521;48.148;-1.656;2023-05-18T06:15:29;20.50;77.90
26964;DHT22;14521;48.148;-1.656;2023-05-18T06:18:52;20.60;78.50
26964;DHT22;14521;48.148;-1.656;2023-05-18T06:22:14;20.60;79.10
26964;DHT22;14521;48.148;-1.656;2023-05-18T06:25:51;20.70;79.10
26964;DHT22;14521;48.148;-1.656;2023-05-18T06:29:34;20.70;78.90
26964;DHT22;14521;48.148;-1.656;2023-05-18T06:32:56;20.80;79.10
26964;DHT22;14521;48.148;-1.656;2023-05-18T06:36:19;20.90;79.20
26964;DHT22;14521;48.148;-1.656;2023-05-18T06:39:41;20.90;79.20
26964;DHT22;14521;48.148;-1.656;2023-05-18T06:43:05;20.90;79.50
26964;DHT22;14521;48.148;-1.656;2023-05-18T06:46:38;20.90;79.20
26964;DHT22;14521;48.148;-1.656;2023-05-18T06:50:08;21.00;79.10
26964;DHT22;14521;48.148;-1.656;2023-05-18T06:53:30;21.00;79.20
26964;DHT22;14521;48.148;-1.656;2023-05-18T06:56:54;21.00;79.10
26964;DHT22;14521;48.148;-1.656;2023-05-18T07:00:17;21.00;79.10
26964;DHT22;14521;48.148;-1.656;2023-05-18T07:03:40;21.00;79.20
26964;DHT22;14521;48.148;-1.656;2023-05-18T07:07:03;21.10;79.30
26964;DHT22;14521;48.148;-1.656;2023-05-18T07:10:25;21.10;79.30
26964;DHT22;14521;48.148;-1.656;2023-05-18T07:13:49;21.10;79.30
26964;DHT22;14521;48.148;-1.656;2023-05-18T07:17:12;21.20;79.40
26964;DHT22;14521;48.148;-1.656;2023-05-18T07:20:34;21.20;79.60
26964;DHT22;14521;48.148;-1.656;2023-05-18T07:23:56;21.20;79.60
26964;DHT22;14521;48.148;-1.656;2023-05-18T07:27:19;21.20;79.50
26964;DHT22;14521;48.148;-1.656;2023-05-18T07:30:41;21.20;79.60
26964;DHT22;14521;48.148;-1.656;2023-05-18T07:34:04;21.20;80.00
26964;DHT22;14521;48.148;-1.656;2023-05-18T07:37:26;21.20;80.00
26964;DHT22;14521;48.148;-1.656;2023-05-18T07:40:48;21.20;80.10
26964;DHT22;14521;48.148;-1.656;2023-05-18T07:44:11;21.30;80.30
26964;DHT22;14521;48.148;-1.656;2023-05-18T07:47:34;21.20;79.00
26964;DHT22;14521;48.148;-1.656;2023-05-18T07:50:56;21.20;80.60
26964;DHT22;14521;48.148;-1.656;2023-05-18T07:54:19;21.20;81.00
26964;DHT22;14521;48.148;-1.656;2023-05-18T07:57:41;21.20;81.20
26964;DHT22;14521;48.148;-1.656;2023-05-18T08:01:03;21.30;81.10
26964;DHT22;14521;48.148;-1.656;2023-05-18T08:04:26;21.30;81.90
26964;DHT22;14521;48.148;-1.656;2023-05-18T08:07:49;21.30;82.60
26964;DHT22;14521;48.148;-1.656;2023-05-18T08:11:12;21.40;82.90
26964;DHT22;14521;48.148;-1.656;2023-05-18T08:14:34;21.30;79.50
26964;DHT22;14521;48.148;-1.656;2023-05-18T08:17:56;21.30;82.30
26964;DHT22;14521;48.148;-1.656;2023-05-18T08:21:19;21.40;82.50
26964;DHT22;14521;48.148;-1.656;2023-05-18T08:24:41;21.40;83.00
26964;DHT22;14521;48.148;-1.656;2023-05-18T08:28:04;21.40;83.20
26964;DHT22;14521;48.148;-1.656;2023-05-18T08:31:26;21.40;82.80
26964;DHT22;14521;48.148;-1.656;2023-05-18T08:34:48;21.40;82.60
26964;DHT22;14521;48.148;-1.656;2023-05-18T08:38:12;21.40;77.80
26964;DHT22;14521;48.148;-1.656;2023-05-18T08:41:35;21.20;76.50
26964;DHT22;14521;48.148;-1.656;2023-05-18T08:45:09;21.10;77.50
26964;DHT22;14521;48.148;-1.656;2023-05-18T08:48:33;21.20;77.70
26964;DHT22;14521;48.148;-1.656;2023-05-18T08:52:01;21.20;78.20
26964;DHT22;14521;48.148;-1.656;2023-05-18T08:55:24;21.20;78.90
26964;DHT22;14521;48.148;-1.656;2023-05-18T08:58:50;21.20;79.80
26964;DHT22;14521;48.148;-1.656;2023-05-18T09:02:13;21.20;79.80
26964;DHT22;14521;48.148;-1.656;2023-05-18T09:05:37;21.20;81.00
26964;DHT22;14521;48.148;-1.656;2023-05-18T09:09:00;21.20;88.50
26964;DHT22;14521;48.148;-1.656;2023-05-18T09:12:26;21.20;86.50
26964;DHT22;14521;48.148;-1.656;2023-05-18T09:15:49;21.10;83.50
26964;DHT22;14521;48.148;-1.656;2023-05-18T09:19:12;21.10;76.10
26964;DHT22;14521;48.148;-1.656;2023-05-18T09:22:35;21.00;75.40
26964;DHT22;14521;48.148;-1.656;2023-05-18T09:25:58;20.90;74.30
26964;DHT22;14521;48.148;-1.656;2023-05-18T09:29:21;20.90;74.10
26964;DHT22;14521;48.148;-1.656;2023-05-18T09:32:46;20.90;77.90
26964;DHT22;14521;48.148;-1.656;2023-05-18T09:36:09;21.00;76.00
26964;DHT22;14521;48.148;-1.656;2023-05-18T09:39:33;21.00;76.10
26964;DHT22;14521;48.148;-1.656;2023-05-18T09:42:55;21.00;74.90
26964;DHT22;14521;48.148;-1.656;2023-05-18T09:46:18;21.00;73.20
26964;DHT22;14521;48.148;-1.656;2023-05-18T09:49:42;21.00;70.80
26964;DHT22;14521;48.148;-1.656;2023-05-18T09:53:08;20.90;71.20
26964;DHT22;14521;48.148;-1.656;2023-05-18T09:56:34;20.90;69.80
26964;DHT22;14521;48.148;-1.656;2023-05-18T10:00:03;21.00;69.30
26964;DHT22;14521;48.148;-1.656;2023-05-18T10:03:35;21.00;70.70
26964;DHT22;14521;48.148;-1.656;2023-05-18T10:07:01;21.00;71.80
26964;DHT22;14521;48.148;-1.656;2023-05-18T10:10:29;21.00;68.70
26964;DHT22;14521;48.148;-1.656;2023-05-18T10:13:53;20.90;68.90
26964;DHT22;14521;48.148;-1.656;2023-05-18T10:17:17;21.00;69.90
26964;DHT22;14521;48.148;-1.656;2023-05-18T10:20:40;20.90;70.10
26964;DHT22;14521;48.148;-1.656;2023-05-18T10:24:04;21.00;70.20
26964;DHT22;14521;48.148;-1.656;2023-05-18T10:27:34;21.00;70.50
26964;DHT22;14521;48.148;-1.656;2023-05-18T10:30:58;21.00;73.20
26964;DHT22;14521;48.148;-1.656;2023-05-18T10:34:22;21.20;74.00
26964;DHT22;14521;48.148;-1.656;2023-05-18T10:37:46;21.30;74.50
26964;DHT22;14521;48.148;-1.656;2023-05-18T10:41:17;21.30;75.30
26964;DHT22;14521;48.148;-1.656;2023-05-18T10:44:44;21.40;74.80
26964;DHT22;14521;48.148;-1.656;2023-05-18T10:48:08;21.40;75.70
26964;DHT22;14521;48.148;-1.656;2023-05-18T10:51:32;21.40;76.00
26964;DHT22;14521;48.148;-1.656;2023-05-18T10:54:59;21.40;76.50
26964;DHT22;14521;48.148;-1.656;2023-05-18T10:58:24;21.40;76.50
26964;DHT22;14521;48.148;-1.656;2023-05-18T11:01:49;21.50;76.60
26964;DHT22;14521;48.148;-1.656;2023-05-18T11:05:12;21.50;76.10
26964;DHT22;14521;48.148;-1.656;2023-05-18T11:08:48;21.50;76.20
26964;DHT22;14521;48.148;-1.656;2023-05-18T11:12:12;21.50;76.20
26964;DHT22;14521;48.148;-1.656;2023-05-18T11:19:16;21.50;76.30
26964;DHT22;14521;48.148;-1.656;2023-05-18T11:26:27;21.50;76.70
26964;DHT22;14521;48.148;-1.656;2023-05-18T11:29:49;21.50;76.70
26964;DHT22;14521;48.148;-1.656;2023-05-18T11:33:29;21.50;77.00
26964;DHT22;14521;48.148;-1.656;2023-05-18T11:36:54;21.50;77.00
26964;DHT22;14521;48.148;-1.656;2023-05-18T11:40:52;21.60;77.30
26964;DHT22;14521;48.148;-1.656;2023-05-18T11:47:38;21.60;77.80
26964;DHT22;14521;48.148;-1.656;2023-05-18T11:51:02;21.60;78.40
26964;DHT22;14521;48.148;-1.656;2023-05-18T11:54:38;21.60;78.60
26964;DHT22;14521;48.148;-1.656;2023-05-18T11:58:01;21.60;77.40
26964;DHT22;14521;48.148;-1.656;2023-05-18T12:01:23;21.20;74.20
26964;DHT22;14521;48.148;-1.656;2023-05-18T12:04:57;21.10;75.40
26964;DHT22;14521;48.148;-1.656;2023-05-18T12:08:21;21.10;75.40
26964;DHT22;14521;48.148;-1.656;2023-05-18T12:11:51;21.30;75.70
26964;DHT22;14521;48.148;-1.656;2023-05-18T12:15:13;21.30;74.70
26964;DHT22;14521;48.148;-1.656;2023-05-18T12:18:38;21.40;74.60
26964;DHT22;14521;48.148;-1.656;2023-05-18T12:22:00;21.40;75.20
26964;DHT22;14521;48.148;-1.656;2023-05-18T12:25:25;21.40;73.90
26964;DHT22;14521;48.148;-1.656;2023-05-18T12:28:48;21.30;74.10
26964;DHT22;14521;48.148;-1.656;2023-05-18T12:32:11;21.30;74.40
26964;DHT22;14521;48.148;-1.656;2023-05-18T12:35:33;21.30;74.70
26964;DHT22;14521;48.148;-1.656;2023-05-18T12:38:56;21.20;77.80
26964;DHT22;14521;48.148;-1.656;2023-05-18T12:42:18;21.20;78.00
26964;DHT22;14521;48.148;-1.656;2023-05-18T12:45:43;21.30;77.30
26964;DHT22;14521;48.148;-1.656;2023-05-18T12:49:05;21.50;77.20
26964;DHT22;14521;48.148;-1.656;2023-05-18T12:52:28;21.60;77.10
26964;DHT22;14521;48.148;-1.656;2023-05-18T12:55:57;21.60;76.90
26964;DHT22;14521;48.148;-1.656;2023-05-18T12:59:20;21.60;77.30
26964;DHT22;14521;48.148;-1.656;2023-05-18T13:02:42;21.50;77.50
26964;DHT22;14521;48.148;-1.656;2023-05-18T13:06:06;21.50;77.80
26964;DHT22;14521;48.148;-1.656;2023-05-18T13:09:29;21.50;78.40
26964;DHT22;14521;48.148;-1.656;2023-05-18T13:12:51;21.50;77.20
26964;DHT22;14521;48.148;-1.656;2023-05-18T13:16:15;21.50;77.00
26964;DHT22;14521;48.148;-1.656;2023-05-18T13:19:37;21.60;77.90
26964;DHT22;14521;48.148;-1.656;2023-05-18T13:23:08;21.60;78.20
26964;DHT22;14521;48.148;-1.656;2023-05-18T13:26:31;21.60;78.20
26964;DHT22;14521;48.148;-1.656;2023-05-18T13:29:54;21.60;78.20
26964;DHT22;14521;48.148;-1.656;2023-05-18T13:33:19;21.60;78.30
26964;DHT22;14521;48.148;-1.656;2023-05-18T13:36:42;21.60;78.30
26964;DHT22;14521;48.148;-1.656;2023-05-18T13:40:05;21.60;78.30
26964;DHT22;14521;48.148;-1.656;2023-05-18T13:43:28;21.60;78.40
26964;DHT22;14521;48.148;-1.656;2023-05-18T13:46:50;21.60;78.30
26964;DHT22;14521;48.148;-1.656;2023-05-18T13:50:13;21.60;78.30
26964;DHT22;14521;48.148;-1.656;2023-05-18T13:53:35;21.60;78.30
26964;DHT22;14521;48.148;-1.656;2023-05-18T13:57:01;21.60;78.40
26964;DHT22;14521;48.148;-1.656;2023-05-18T14:00:23;21.70;78.40
26964;DHT22;14521;48.148;-1.656;2023-05-18T14:03:46;21.60;78.40
26964;DHT22;14521;48.148;-1.656;2023-05-18T14:07:08;21.60;78.40
26964;DHT22;14521;48.148;-1.656;2023-05-18T14:10:32;21.60;78.40
26964;DHT22;14521;48.148;-1.656;2023-05-18T14:13:54;21.60;78.40
26964;DHT22;14521;48.148;-1.656;2023-05-18T14:17:16;21.60;78.50
26964;DHT22;14521;48.148;-1.656;2023-05-18T14:20:39;21.60;78.60
26964;DHT22;14521;48.148;-1.656;2023-05-18T14:24:01;21.60;78.60
26964;DHT22;14521;48.148;-1.656;2023-05-18T14:27:27;21.60;78.70
26964;DHT22;14521;48.148;-1.656;2023-05-18T14:30:50;21.60;78.60
26964;DHT22;14521;48.148;-1.656;2023-05-18T14:34:12;21.60;78.70
26964;DHT22;14521;48.148;-1.656;2023-05-18T14:37:34;21.60;78.70
26964;DHT22;14521;48.148;-1.656;2023-05-18T14:40:57;21.70;78.80
26964;DHT22;14521;48.148;-1.656;2023-05-18T14:44:19;21.60;79.50
26964;DHT22;14521;48.148;-1.656;2023-05-18T14:47:41;21.60;78.70
26964;DHT22;14521;48.148;-1.656;2023-05-18T14:51:04;21.60;78.80
26964;DHT22;14521;48.148;-1.656;2023-05-18T14:54:26;21.60;78.90
26964;DHT22;14521;48.148;-1.656;2023-05-18T14:57:49;21.60;79.60
26964;DHT22;14521;48.148;-1.656;2023-05-18T15:01:11;21.70;78.70
26964;DHT22;14521;48.148;-1.656;2023-05-18T15:04:33;21.60;78.60
26964;DHT22;14521;48.148;-1.656;2023-05-18T15:07:57;21.70;78.70
26964;DHT22;14521;48.148;-1.656;2023-05-18T15:11:19;21.60;78.70
26964;DHT22;14521;48.148;-1.656;2023-05-18T15:14:43;21.60;78.70
26964;DHT22;14521;48.148;-1.656;2023-05-18T15:18:06;21.60;78.80
26964;DHT22;14521;48.148;-1.656;2023-05-18T15:21:28;21.60;78.80
26964;DHT22;14521;48.148;-1.656;2023-05-18T15:24:50;21.60;78.90
26964;DHT22;14521;48.148;-1.656;2023-05-18T15:28:13;21.60;79.00
26964;DHT22;14521;48.148;-1.656;2023-05-18T15:31:35;21.60;78.90
26964;DHT22;14521;48.148;-1.656;2023-05-18T15:35:03;21.60;79.70
26964;DHT22;14521;48.148;-1.656;2023-05-18T15:38:26;21.60;78.90
26964;DHT22;14521;48.148;-1.656;2023-05-18T15:41:50;21.60;78.90
26964;DHT22;14521;48.148;-1.656;2023-05-18T15:45:13;21.60;78.90
26964;DHT22;14521;48.148;-1.656;2023-05-18T15:48:36;21.60;78.90
26964;DHT22;14521;48.148;-1.656;2023-05-18T15:51:58;21.60;78.90
26964;DHT22;14521;48.148;-1.656;2023-05-18T15:55:21;21.60;78.90
26964;DHT22;14521;48.148;-1.656;2023-05-18T15:58:43;21.60;78.80
26964;DHT22;14521;48.148;-1.656;2023-05-18T16:02:06;21.60;78.90
26964;DHT22;14521;48.148;-1.656;2023-05-18T16:05:28;21.60;78.80
26964;DHT22;14521;48.148;-1.656;2023-05-18T16:08:50;21.60;78.90
26964;DHT22;14521;48.148;-1.656;2023-05-18T16:12:13;21.60;78.80
26964;DHT22;14521;48.148;-1.656;2023-05-18T16:15:35;21.60;78.70
26964;DHT22;14521;48.148;-1.656;2023-05-18T16:18:58;21.60;78.70
26964;DHT22;14521;48.148;-1.656;2023-05-18T16:22:21;21.60;79.70
26964;DHT22;14521;48.148;-1.656;2023-05-18T16:25:44;21.60;78.90
26964;DHT22;14521;48.148;-1.656;2023-05-18T16:29:06;21.60;78.90
26964;DHT22;14521;48.148;-1.656;2023-05-18T16:32:28;21.60;78.90
26964;DHT22;14521;48.148;-1.656;2023-05-18T16:35:52;21.60;78.90
26964;DHT22;14521;48.148;-1.656;2023-05-18T16:39:15;21.70;78.90
26964;DHT22;14521;48.148;-1.656;2023-05-18T16:42:37;21.60;78.80
26964;DHT22;14521;48.148;-1.656;2023-05-18T16:46:00;21.70;79.00
26964;DHT22;14521;48.148;-1.656;2023-05-18T16:49:22;21.60;78.90
26964;DHT22;14521;48.148;-1.656;2023-05-18T16:52:44;21.60;78.90
26964;DHT22;14521;48.148;-1.656;2023-05-18T16:56:07;21.60;78.80
26964;DHT22;14521;48.148;-1.656;2023-05-18T16:59:29;21.60;78.80
26964;DHT22;14521;48.148;-1.656;2023-05-18T17:02:54;21.60;78.70
26964;DHT22;14521;48.148;-1.656;2023-05-18T17:06:17;21.60;78.80
26964;DHT22;14521;48.148;-1.656;2023-05-18T17:09:42;21.60;77.40
26964;DHT22;14521;48.148;-1.656;2023-05-18T17:13:04;21.60;78.60
26964;DHT22;14521;48.148;-1.656;2023-05-18T17:16:27;21.50;79.10
26964;DHT22;14521;48.148;-1.656;2023-05-18T17:19:51;21.60;77.60
26964;DHT22;14521;48.148;-1.656;2023-05-18T17:23:13;21.50;78.90
26964;DHT22;14521;48.148;-1.656;2023-05-18T17:26:39;21.40;80.00
26964;DHT22;14521;48.148;-1.656;2023-05-18T17:30:02;21.30;78.80
26964;DHT22;14521;48.148;-1.656;2023-05-18T17:33:24;21.40;80.50
26964;DHT22;14521;48.148;-1.656;2023-05-18T17:36:47;21.50;81.30
26964;DHT22;14521;48.148;-1.656;2023-05-18T17:40:10;21.40;81.90
26964;DHT22;14521;48.148;-1.656;2023-05-18T17:43:32;21.50;81.90
26964;DHT22;14521;48.148;-1.656;2023-05-18T17:46:55;21.50;81.90
26964;DHT22;14521;48.148;-1.656;2023-05-18T17:50:18;21.60;83.30
26964;DHT22;14521;48.148;-1.656;2023-05-18T17:53:40;21.70;84.60
26964;DHT22;14521;48.148;-1.656;2023-05-18T17:57:03;21.70;85.40
26964;DHT22;14521;48.148;-1.656;2023-05-18T18:00:26;21.70;84.20
26964;DHT22;14521;48.148;-1.656;2023-05-18T18:03:49;21.70;85.80
26964;DHT22;14521;48.148;-1.656;2023-05-18T18:07:11;21.70;82.70
26964;DHT22;14521;48.148;-1.656;2023-05-18T18:10:33;21.70;84.30
26964;DHT22;14521;48.148;-1.656;2023-05-18T18:13:56;21.80;84.00
26964;DHT22;14521;48.148;-1.656;2023-05-18T18:17:18;21.80;82.50
26964;DHT22;14521;48.148;-1.656;2023-05-18T18:20:40;21.80;81.00
26964;DHT22;14521;48.148;-1.656;2023-05-18T18:24:03;21.70;79.40
26964;DHT22;14521;48.148;-1.656;2023-05-18T18:27:26;21.70;80.60
26964;DHT22;14521;48.148;-1.656;2023-05-18T18:30:48;21.70;77.90
26964;DHT22;14521;48.148;-1.656;2023-05-18T18:34:11;21.70;77.10
26964;DHT22;14521;48.148;-1.656;2023-05-18T18:37:33;21.30;81.30
26964;DHT22;14521;48.148;-1.656;2023-05-18T18:40:56;21.10;82.50
26964;DHT22;14521;48.148;-1.656;2023-05-18T18:44:22;21.00;81.80
26964;DHT22;14521;48.148;-1.656;2023-05-18T18:47:45;20.90;81.90
26964;DHT22;14521;48.148;-1.656;2023-05-18T18:51:07;20.90;82.10
26964;DHT22;14521;48.148;-1.656;2023-05-18T18:54:29;21.00;81.80
26964;DHT22;14521;48.148;-1.656;2023-05-18T18:57:52;21.00;81.30
26964;DHT22;14521;48.148;-1.656;2023-05-18T19:01:14;20.90;81.50
26964;DHT22;14521;48.148;-1.656;2023-05-18T19:04:36;20.90;80.80
26964;DHT22;14521;48.148;-1.656;2023-05-18T19:07:59;20.90;80.70
26964;DHT22;14521;48.148;-1.656;2023-05-18T19:11:22;20.90;80.50
26964;DHT22;14521;48.148;-1.656;2023-05-18T19:14:45;20.90;80.50
26964;DHT22;14521;48.148;-1.656;2023-05-18T19:18:07;20.80;80.00
26964;DHT22;14521;48.148;-1.656;2023-05-18T19:21:29;20.70;77.70
26964;DHT22;14521;48.148;-1.656;2023-05-18T19:24:52;20.70;77.80
26964;DHT22;14521;48.148;-1.656;2023-05-18T19:28:15;20.80;79.60
26964;DHT22;14521;48.148;-1.656;2023-05-18T19:31:37;20.80;79.80
26964;DHT22;14521;48.148;-1.656;2023-05-18T19:34:59;20.80;79.50
26964;DHT22;14521;48.148;-1.656;2023-05-18T19:38:22;21.00;79.40
26964;DHT22;14521;48.148;-1.656;2023-05-18T19:41:44;21.00;80.70
26964;DHT22;14521;48.148;-1.656;2023-05-18T19:45:07;21.10;81.50
26964;DHT22;14521;48.148;-1.656;2023-05-18T19:48:29;21.00;82.00
26964;DHT22;14521;48.148;-1.656;2023-05-18T19:51:52;21.00;82.70
26964;DHT22;14521;48.148;-1.656;2023-05-18T19:55:15;21.00;82.90
26964;DHT22;14521;48.148;-1.656;2023-05-18T19:58:38;21.00;83.00
26964;DHT22;14521;48.148;-1.656;2023-05-18T20:02:01;21.00;83.20
26964;DHT22;14521;48.148;-1.656;2023-05-18T20:05:26;20.90;83.30
26964;DHT22;14521;48.148;-1.656;2023-05-18T20:08:48;20.90;83.40
26964;DHT22;14521;48.148;-1.656;2023-05-18T20:12:11;20.90;83.50
26964;DHT22;14521;48.148;-1.656;2023-05-18T20:15:33;21.00;83.50
26964;DHT22;14521;48.148;-1.656;2023-05-18T20:18:58;20.90;83.60
26964;DHT22;14521;48.148;-1.656;2023-05-18T20:22:20;20.90;83.70
26964;DHT22;14521;48.148;-1.656;2023-05-18T20:25:46;20.90;83.70
26964;DHT22;14521;48.148;-1.656;2023-05-18T20:29:09;21.00;84.10
26964;DHT22;14521;48.148;-1.656;2023-05-18T20:32:31;20.90;84.00
26964;DHT22;14521;48.148;-1.656;2023-05-18T20:35:54;20.90;83.90
26964;DHT22;14521;48.148;-1.656;2023-05-18T20:39:16;20.90;81.30
26964;DHT22;14521;48.148;-1.656;2023-05-18T20:42:38;21.00;79.40
26964;DHT22;14521;48.148;-1.656;2023-05-18T20:46:04;21.00;79.30
26964;DHT22;14521;48.148;-1.656;2023-05-18T20:49:27;21.00;79.20
26964;DHT22;14521;48.148;-1.656;2023-05-18T20:52:50;21.00;79.00
26964;DHT22;14521;48.148;-1.656;2023-05-18T20:56:13;21.10;79.00
26964;DHT22;14521;48.148;-1.656;2023-05-18T20:59:36;21.10;79.00
26964;DHT22;14521;48.148;-1.656;2023-05-18T21:02:58;21.10;78.90
26964;DHT22;14521;48.148;-1.656;2023-05-18T21:06:25;21.10;78.90
26964;DHT22;14521;48.148;-1.656;2023-05-18T21:09:48;21.10;78.90
26964;DHT22;14521;48.148;-1.656;2023-05-18T21:13:10;21.00;78.80
26964;DHT22;14521;48.148;-1.656;2023-05-18T21:16:33;21.10;78.70
26964;DHT22;14521;48.148;-1.656;2023-05-18T21:19:55;21.10;78.70
26964;DHT22;14521;48.148;-1.656;2023-05-18T21:23:17;21.00;78.60
26964;DHT22;14521;48.148;-1.656;2023-05-18T21:26:40;21.00;78.60
26964;DHT22;14521;48.148;-1.656;2023-05-18T21:30:03;21.00;78.60
26964;DHT22;14521;48.148;-1.656;2023-05-18T21:33:25;21.00;78.40